sensor_id;sensor_type;location;lat;lon;timestamp;pressure;altitude;pressure_sealevel;temperature;humidity
69027;BME280;56080;47.594;19.116;2023-04-19T00:01:57;100233;;;13.57;51.65
69027;BME280;56080;47.594;19.116;2023-04-19T00:11:58;100217;;;13.59;51.13
69027;BME280;56080;47.594;19.116;2023-04-19T00:21:59;100216;;;13.45;51.69
69027;BME280;56080;47.594;19.116;2023-04-19T00:42:01;100197;;;13.38;49.82
69027;BME280;56080;47.594;19.116;2023-04-19T00:52:02;100192;;;13.07;50.47
69027;BME280;56080;47.594;19.116;2023-04-19T01:02:03;100183;;;12.75;51.17
69027;BME280;56080;47.594;19.116;2023-04-19T01:12:04;100174;;;12.67;51.65
69027;BME280;56080;47.594;19.116;2023-04-19T01:22:05;100167;;;12.42;50.82
69027;BME280;56080;47.594;19.116;2023-04-19T01:32:06;100157;;;12.38;50.70
69027;BME280;56080;47.594;19.116;2023-04-19T01:42:07;100141;;;12.38;53.90
69027;BME280;56080;47.594;19.116;2023-04-19T01:52:08;100141;;;12.22;56.50
69027;BME280;56080;47.594;19.116;2023-04-19T02:02:11;100144;;;12.06;56.87
69027;BME280;56080;47.594;19.116;2023-04-19T02:12:10;100132;;;12.08;55.74
69027;BME280;56080;47.594;19.116;2023-04-19T02:22:13;100122;;;11.96;57.75
69027;BME280;56080;47.594;19.116;2023-04-19T02:32:12;100128;;;11.97;57.14
69027;BME280;56080;47.594;19.116;2023-04-19T02:42:13;100109;;;12.02;54.53
69027;BME280;56080;47.594;19.116;2023-04-19T02:52:14;100105;;;11.91;54.36
69027;BME280;56080;47.594;19.116;2023-04-19T03:02:15;100095;;;12.01;54.75
69027;BME280;56080;47.594;19.116;2023-04-19T03:12:16;100094;;;11.68;56.01
69027;BME280;56080;47.594;19.116;2023-04-19T03:22:17;100076;;;11.76;55.17
69027;BME280;56080;47.594;19.116;2023-04-19T03:32:18;100068;;;11.83;54.86
69027;BME280;56080;47.594;19.116;2023-04-19T03:42:19;100072;;;11.45;59.35
69027;BME280;56080;47.594;19.116;2023-04-19T03:52:20;100067;;;11.22;58.53
69027;BME280;56080;47.594;19.116;2023-04-19T04:02:21;100063;;;11.20;58.13
69027;BME280;56080;47.594;19.116;2023-04-19T04:12:22;100064;;;11.00;59.09
69027;BME280;56080;47.594;19.116;2023-04-19T04:22:22;100061;;;10.86;60.88
69027;BME280;56080;47.594;19.116;2023-04-19T04:32:24;100067;;;10.83;61.17
69027;BME280;56080;47.594;19.116;2023-04-19T04:42:25;100058;;;11.01;60.28
69027;BME280;56080;47.594;19.116;2023-04-19T04:52:25;100060;;;11.13;60.09
69027;BME280;56080;47.594;19.116;2023-04-19T05:02:26;100055;;;11.28;60.82
69027;BME280;56080;47.594;19.116;2023-04-19T05:12:27;100052;;;11.41;59.07
69027;BME280;56080;47.594;19.116;2023-04-19T05:22:28;100042;;;11.69;58.70
69027;BME280;56080;47.594;19.116;2023-04-19T05:32:29;100048;;;12.83;55.77
69027;BME280;56080;47.594;19.116;2023-04-19T05:42:30;100045;;;13.99;52.89
69027;BME280;56080;47.594;19.116;2023-04-19T05:52:31;100044;;;13.20;54.34
69027;BME280;56080;47.594;19.116;2023-04-19T06:02:33;100040;;;13.40;54.79
69027;BME280;56080;47.594;19.116;2023-04-19T06:12:33;100041;;;13.57;53.97
69027;BME280;56080;47.594;19.116;2023-04-19T06:22:40;100034;;;13.67;53.52
69027;BME280;56080;47.594;19.116;2023-04-19T06:32:35;100026;;;13.67;53.08
69027;BME280;56080;47.594;19.116;2023-04-19T06:42:36;100020;;;14.31;52.13
69027;BME280;56080;47.594;19.116;2023-04-19T06:52:38;100008;;;14.57;49.95
69027;BME280;56080;47.594;19.116;2023-04-19T07:02:38;100006;;;14.92;48.61
69027;BME280;56080;47.594;19.116;2023-04-19T07:22:40;99994;;;15.10;47.21
69027;BME280;56080;47.594;19.116;2023-04-19T07:32:42;99985;;;15.30;45.96
69027;BME280;56080;47.594;19.116;2023-04-19T07:42:43;99983;;;15.34;44.30
69027;BME280;56080;47.594;19.116;2023-04-19T07:52:44;99980;;;15.69;45.17
69027;BME280;56080;47.594;19.116;2023-04-19T08:02:46;99976;;;15.89;44.77
69027;BME280;56080;47.594;19.116;2023-04-19T08:12:57;99967;;;19.13;37.97
69027;BME280;56080;47.594;19.116;2023-04-19T08:22:48;99949;;;21.71;32.27
69027;BME280;56080;47.594;19.116;2023-04-19T08:32:50;99946;;;19.97;32.41
69027;BME280;56080;47.594;19.116;2023-04-19T08:42:51;99947;;;18.09;36.40
69027;BME280;56080;47.594;19.116;2023-04-19T08:53:01;99943;;;17.41;37.68
69027;BME280;56080;47.594;19.116;2023-04-19T09:02:55;99944;;;16.76;38.49
69027;BME280;56080;47.594;19.116;2023-04-19T09:13:03;99937;;;17.60;38.03
69027;BME280;56080;47.594;19.116;2023-04-19T09:23:05;99933;;;18.74;36.54
69027;BME280;56080;47.594;19.116;2023-04-19T09:32:59;99926;;;19.47;33.62
69027;BME280;56080;47.594;19.116;2023-04-19T09:43:10;99907;;;19.98;32.62
69027;BME280;56080;47.594;19.116;2023-04-19T09:53:02;99912;;;20.17;32.89
69027;BME280;56080;47.594;19.116;2023-04-19T10:03:03;99911;;;19.05;34.74
69027;BME280;56080;47.594;19.116;2023-04-19T10:13:15;99900;;;18.88;33.35
69027;BME280;56080;47.594;19.116;2023-04-19T10:23:07;99899;;;19.09;36.04
69027;BME280;56080;47.594;19.116;2023-04-19T10:33:07;99895;;;18.99;37.24
69027;BME280;56080;47.594;19.116;2023-04-19T11:13:13;99862;;;18.46;34.71
69027;BME280;56080;47.594;19.116;2023-04-19T11:23:15;99849;;;18.51;34.56
69027;BME280;56080;47.594;19.116;2023-04-19T11:33:18;99853;;;18.46;35.00
69027;BME280;56080;47.594;19.116;2023-04-19T11:43:17;99857;;;18.79;40.54
69027;BME280;56080;47.594;19.116;2023-04-19T11:53:20;99848;;;18.67;41.05
69027;BME280;56080;47.594;19.116;2023-04-19T12:03:23;99854;;;18.58;41.46
69027;BME280;56080;47.594;19.116;2023-04-19T12:13:22;99863;;;18.15;42.61
69027;BME280;56080;47.594;19.116;2023-04-19T12:23:23;99860;;;17.92;44.23
69027;BME280;56080;47.594;19.116;2023-04-19T12:33:24;99856;;;17.82;43.95
69027;BME280;56080;47.594;19.116;2023-04-19T12:43:26;99854;;;18.05;43.17
69027;BME280;56080;47.594;19.116;2023-04-19T12:53:27;99856;;;18.02;44.68
69027;BME280;56080;47.594;19.116;2023-04-19T13:03:31;99852;;;18.00;43.72
69027;BME280;56080;47.594;19.116;2023-04-19T13:13:30;99852;;;17.81;44.51
69027;BME280;56080;47.594;19.116;2023-04-19T13:23:31;99855;;;17.69;45.23
69027;BME280;56080;47.594;19.116;2023-04-19T13:33:33;99854;;;17.68;46.06
69027;BME280;56080;47.594;19.116;2023-04-19T13:43:34;99846;;;17.69;45.39
69027;BME280;56080;47.594;19.116;2023-04-19T13:53:36;99860;;;17.63;50.03
69027;BME280;56080;47.594;19.116;2023-04-19T14:03:37;99846;;;17.54;51.49
69027;BME280;56080;47.594;19.116;2023-04-19T14:13:38;99850;;;17.49;53.67
69027;BME280;56080;47.594;19.116;2023-04-19T14:23:39;99855;;;16.95;55.59
69027;BME280;56080;47.594;19.116;2023-04-19T14:33:41;99859;;;16.81;58.82
69027;BME280;56080;47.594;19.116;2023-04-19T14:43:42;99868;;;16.47;56.45
69027;BME280;56080;47.594;19.116;2023-04-19T14:53:43;99876;;;16.60;52.51
69027;BME280;56080;47.594;19.116;2023-04-19T15:03:45;99877;;;16.78;50.15
69027;BME280;56080;47.594;19.116;2023-04-19T15:13:46;99879;;;16.91;48.50
69027;BME280;56080;47.594;19.116;2023-04-19T15:23:48;99890;;;16.90;49.04
69027;BME280;56080;47.594;19.116;2023-04-19T15:33:48;99896;;;16.64;50.26
69027;BME280;56080;47.594;19.116;2023-04-19T15:43:50;99896;;;16.64;50.23
69027;BME280;56080;47.594;19.116;2023-04-19T16:03:52;99905;;;16.58;49.86
69027;BME280;56080;47.594;19.116;2023-04-19T16:13:53;99913;;;16.55;50.98
69027;BME280;56080;47.594;19.116;2023-04-19T16:33:56;99926;;;16.00;54.84
69027;BME280;56080;47.594;19.116;2023-04-19T16:43:57;99925;;;15.63;56.36
69027;BME280;56080;47.594;19.116;2023-04-19T16:53:58;99935;;;15.77;57.11
69027;BME280;56080;47.594;19.116;2023-04-19T17:04:00;99941;;;15.66;57.96
69027;BME280;56080;47.594;19.116;2023-04-19T17:24:02;99951;;;15.56;59.04
69027;BME280;56080;47.594;19.116;2023-04-19T17:34:04;99961;;;15.37;59.33
69027;BME280;56080;47.594;19.116;2023-04-19T17:44:04;99974;;;15.08;60.54
69027;BME280;56080;47.594;19.116;2023-04-19T17:54:06;99986;;;14.83;61.92
69027;BME280;56080;47.594;19.116;2023-04-19T18:04:10;100001;;;14.67;62.53
69027;BME280;56080;47.594;19.116;2023-04-19T18:14:09;100014;;;14.63;63.25
69027;BME280;56080;47.594;19.116;2023-04-19T18:24:09;100026;;;14.53;64.01
69027;BME280;56080;47.594;19.116;2023-04-19T18:34:13;100038;;;14.34;65.89
69027;BME280;56080;47.594;19.116;2023-04-19T18:44:15;100054;;;13.96;67.42
69027;BME280;56080;47.594;19.116;2023-04-19T18:54:14;100062;;;14.02;67.51
69027;BME280;56080;47.594;19.116;2023-04-19T19:04:23;100063;;;13.79;68.49
69027;BME280;56080;47.594;19.116;2023-04-19T19:14:15;100071;;;13.49;70.09
69027;BME280;56080;47.594;19.116;2023-04-19T19:24:16;100074;;;13.30;70.83
69027;BME280;56080;47.594;19.116;2023-04-19T19:34:27;100086;;;12.93;72.83
69027;BME280;56080;47.594;19.116;2023-04-19T19:44:18;100087;;;13.04;73.32
69027;BME280;56080;47.594;19.116;2023-04-19T19:54:19;100093;;;12.77;74.28
69027;BME280;56080;47.594;19.116;2023-04-19T20:04:21;100090;;;12.67;74.32
69027;BME280;56080;47.594;19.116;2023-04-19T20:14:22;100089;;;12.36;74.82
69027;BME280;56080;47.594;19.116;2023-04-19T20:24:23;100092;;;12.07;76.75
69027;BME280;56080;47.594;19.116;2023-04-19T20:34:22;100099;;;12.20;75.58
69027;BME280;56080;47.594;19.116;2023-04-19T20:44:24;100106;;;12.01;76.56
69027;BME280;56080;47.594;19.116;2023-04-19T21:04:25;100117;;;11.76;77.69
69027;BME280;56080;47.594;19.116;2023-04-19T21:14:26;100120;;;11.65;78.25
69027;BME280;56080;47.594;19.116;2023-04-19T21:24:27;100121;;;11.55;79.08
69027;BME280;56080;47.594;19.116;2023-04-19T21:34:28;100121;;;11.16;80.71
69027;BME280;56080;47.594;19.116;2023-04-19T21:44:28;100127;;;10.90;82.57
69027;BME280;56080;47.594;19.116;2023-04-19T21:54:34;100133;;;10.77;81.55
69027;BME280;56080;47.594;19.116;2023-04-19T22:04:30;100134;;;10.66;82.66
69027;BME280;56080;47.594;19.116;2023-04-19T22:14:31;100148;;;10.59;83.93
69027;BME280;56080;47.594;19.116;2023-04-19T22:24:32;100149;;;10.33;82.68
69027;BME280;56080;47.594;19.116;2023-04-19T22:34:33;100154;;;9.92;86.02
69027;BME280;56080;47.594;19.116;2023-04-19T22:44:33;100150;;;9.90;84.80
69027;BME280;56080;47.594;19.116;2023-04-19T22:54:34;100148;;;9.99;84.82
69027;BME280;56080;47.594;19.116;2023-04-19T23:04:36;100158;;;9.96;84.82
69027;BME280;56080;47.594;19.116;2023-04-19T23:14:37;100161;;;9.89;84.60
69027;BME280;56080;47.594;19.116;2023-04-19T23:24:37;100158;;;9.74;85.29
69027;BME280;56080;47.594;19.116;2023-04-19T23:34:37;100164;;;9.76;84.91
69027;BME280;56080;47.594;19.116;2023-04-19T23:44:38;100166;;;9.63;84.29
69027;BME280;56080;47.594;19.116;2023-04-19T23:54:39;100158;;;9.56;85.31
